Time;durP1;ratioP1;P1;durP2;ratioP2;P2;SDS_P1;SDS_P2;PMS_P1;PMS_P2;Temp;Humidity;BMP_temperature;BMP_pressure;BME280_temperature;BME280_humidity;BME280_pressure;Samples;Min_cycle;Max_cycle;Signal;HPM_P1;HPM_P2
2022/01/08 00:00:46;;;;;;;7.82;2.55;;;2.10;99.90;;;;;;5051516;28;20053;-69
2022/01/08 00:03:11;;;;;;;6.32;2.15;;;2.00;99.90;;;;;;5041812;28;20052;-69
2022/01/08 00:05:37;;;;;;;6.43;2.35;;;2.00;99.90;;;;;;5071299;28;20489;-69
2022/01/08 00:08:03;;;;;;;8.10;2.45;;;2.00;99.90;;;;;;5037139;28;20124;-68
2022/01/08 00:10:28;;;;;;;4.78;2.20;;;2.00;99.90;;;;;;5034529;28;20067;-69
2022/01/08 00:12:55;;;;;;;5.00;2.40;;;1.90;99.90;;;;;;5052838;28;20064;-69
2022/01/08 00:15:22;;;;;;;5.43;2.33;;;1.90;99.90;;;;;;5059885;28;20084;-69
2022/01/08 00:17:48;;;;;;;4.97;2.10;;;1.90;99.90;;;;;;5054760;28;20060;-68
2022/01/08 00:20:13;;;;;;;5.80;2.03;;;2.00;99.90;;;;;;5050079;28;20045;-69
2022/01/08 00:22:39;;;;;;;7.43;2.20;;;2.00;99.90;;;;;;5050119;28;20060;-69
2022/01/08 00:25:05;;;;;;;4.78;2.17;;;2.00;99.90;;;;;;5069621;28;20048;-69
2022/01/08 00:27:31;;;;;;;5.82;2.17;;;2.10;99.90;;;;;;5051606;28;20041;-68
2022/01/08 00:29:57;;;;;;;7.05;2.42;;;2.00;99.90;;;;;;5055176;28;20188;-68
2022/01/08 00:32:22;;;;;;;5.47;2.00;;;2.10;99.90;;;;;;5058560;28;20049;-68
2022/01/08 00:34:48;;;;;;;6.55;2.30;;;2.10;99.90;;;;;;5047071;28;20053;-68
2022/01/08 00:37:13;;;;;;;6.65;2.20;;;2.00;99.90;;;;;;5065125;28;20044;-68
2022/01/08 00:39:40;;;;;;;9.63;2.97;;;1.90;99.90;;;;;;5067263;28;20187;-68
2022/01/08 00:42:06;;;;;;;6.75;2.33;;;1.90;99.90;;;;;;5033379;28;20447;-68
2022/01/08 00:44:32;;;;;;;5.88;2.30;;;1.90;99.90;;;;;;5050840;28;20497;-68
2022/01/08 00:46:57;;;;;;;7.32;2.35;;;1.90;99.90;;;;;;5032997;28;20136;-68
2022/01/08 00:49:25;;;;;;;6.80;2.40;;;1.90;99.90;;;;;;5050441;28;20048;-68
2022/01/08 00:51:51;;;;;;;7.20;2.60;;;1.80;99.90;;;;;;5064724;28;20504;-69
2022/01/08 00:54:17;;;;;;;5.70;2.42;;;1.80;99.90;;;;;;5069945;28;20063;-67
2022/01/08 00:56:42;;;;;;;7.68;2.40;;;1.80;99.90;;;;;;5069574;28;20050;-68
2022/01/08 00:59:08;;;;;;;6.97;2.33;;;1.80;99.90;;;;;;5052249;28;20048;-68
2022/01/08 01:01:34;;;;;;;6.43;2.70;;;1.80;99.90;;;;;;5068378;28;20469;-68
2022/01/08 01:03:59;;;;;;;9.93;3.15;;;1.80;99.90;;;;;;5069204;28;20052;-68
2022/01/08 01:06:25;;;;;;;5.45;2.72;;;1.70;99.90;;;;;;5051497;28;20059;-69
2022/01/08 01:08:50;;;;;;;4.50;2.70;;;1.70;99.90;;;;;;5070462;28;20131;-69
2022/01/08 01:11:16;;;;;;;6.55;2.78;;;1.70;99.90;;;;;;5050122;28;20060;-68
2022/01/08 01:13:42;;;;;;;5.70;2.53;;;1.80;99.90;;;;;;5071619;28;20423;-69
2022/01/08 01:16:08;;;;;;;7.75;2.85;;;1.90;99.90;;;;;;5068684;28;20040;-68
2022/01/08 01:18:35;;;;;;;8.77;3.33;;;1.90;99.90;;;;;;5069195;28;20045;-68
2022/01/08 01:21:02;;;;;;;9.82;3.35;;;1.90;99.90;;;;;;5061108;28;20045;-68
2022/01/08 01:23:33;;;;;;;6.97;2.80;;;2.00;99.90;;;;;;5062369;28;20519;-68
2022/01/08 01:26:02;;;;;;;7.95;3.45;;;2.00;99.90;;;;;;5050199;28;20103;-68
2022/01/08 01:28:44;;;;;;;6.57;3.20;;;2.10;99.90;;;;;;5069085;28;20040;-71
2022/01/08 01:47:11;;;;;;;7.80;3.38;;;2.20;99.90;;;;;;5067854;28;20045;-68
2022/01/08 01:49:43;;;;;;;7.95;3.65;;;2.10;99.90;;;;;;5068658;28;20044;-69
2022/01/08 01:52:12;;;;;;;7.53;3.47;;;2.00;99.90;;;;;;5069107;28;20493;-69
2022/01/08 01:54:37;;;;;;;6.55;3.45;;;1.90;99.90;;;;;;5062584;28;20047;-68
2022/01/08 01:57:05;;;;;;;6.72;3.35;;;2.00;99.90;;;;;;5063326;28;20060;-69
2022/01/08 01:59:33;;;;;;;8.05;3.67;;;2.00;99.90;;;;;;5034310;28;20461;-69
2022/01/08 02:01:59;;;;;;;9.68;3.92;;;2.00;99.90;;;;;;5064354;28;20071;-69
2022/01/08 02:04:25;;;;;;;9.55;4.07;;;1.90;99.90;;;;;;5068581;28;20483;-68
2022/01/08 02:06:51;;;;;;;8.10;3.80;;;1.90;99.90;;;;;;5067810;28;20110;-69
2022/01/08 02:09:17;;;;;;;9.80;3.30;;;1.90;99.90;;;;;;5050371;28;20049;-69
2022/01/08 02:11:55;;;;;;;7.28;3.38;;;1.90;99.90;;;;;;5051259;28;20052;-68
2022/01/08 02:14:21;;;;;;;10.10;3.50;;;1.90;99.90;;;;;;5050737;28;20125;-69
2022/01/08 02:16:46;;;;;;;14.52;4.25;;;1.80;99.90;;;;;;5049675;28;20040;-69
2022/01/08 02:19:12;;;;;;;8.52;3.45;;;1.80;99.90;;;;;;5069073;28;20103;-68
2022/01/08 02:21:37;;;;;;;9.32;3.20;;;1.90;99.90;;;;;;5055585;28;20056;-69
2022/01/08 02:24:03;;;;;;;9.20;3.90;;;1.90;99.90;;;;;;5068285;28;20049;-68
2022/01/08 02:26:29;;;;;;;10.60;3.60;;;1.80;99.90;;;;;;5068261;28;20061;-68
2022/01/08 02:28:54;;;;;;;7.80;3.20;;;1.80;99.90;;;;;;5032981;28;20059;-68
2022/01/08 02:31:23;;;;;;;9.02;3.35;;;1.80;99.90;;;;;;5067489;28;20084;-68
2022/01/08 02:33:50;;;;;;;7.78;3.30;;;1.80;99.90;;;;;;5068401;28;20041;-68
2022/01/08 02:36:16;;;;;;;8.07;3.60;;;1.70;99.90;;;;;;5067336;28;20603;-68
2022/01/08 02:38:42;;;;;;;8.02;3.33;;;1.70;99.90;;;;;;5068890;28;20072;-68
2022/01/08 02:41:08;;;;;;;5.85;3.20;;;1.70;99.90;;;;;;5049256;28;20158;-68
2022/01/08 02:43:40;;;;;;;6.07;3.08;;;1.70;99.90;;;;;;5067636;28;20575;-68
2022/01/08 02:46:06;;;;;;;10.60;3.00;;;1.70;99.90;;;;;;5067118;28;20219;-68
2022/01/08 02:48:32;;;;;;;11.00;3.20;;;2.40;99.90;;;;;;5068678;28;20048;-68
2022/01/08 02:50:57;;;;;;;5.28;2.90;;;1.60;99.90;;;;;;5066704;28;20060;-68
2022/01/08 02:53:23;;;;;;;9.52;3.13;;;1.70;99.90;;;;;;5067152;28;20481;-68
2022/01/08 02:55:50;;;;;;;6.93;2.80;;;1.70;99.90;;;;;;5046610;28;20065;-68
2022/01/08 02:58:15;;;;;;;6.22;3.15;;;1.80;99.90;;;;;;5046895;28;20057;-70
2022/01/08 03:00:41;;;;;;;4.70;2.38;;;1.80;99.90;;;;;;5067736;28;20516;-69
2022/01/08 03:03:06;;;;;;;7.55;2.80;;;1.90;99.90;;;;;;5066186;28;20052;-69
2022/01/08 03:05:32;;;;;;;6.05;2.72;;;1.80;99.90;;;;;;5050582;28;20485;-69
2022/01/08 03:07:58;;;;;;;8.32;2.70;;;1.80;99.90;;;;;;5068014;28;20044;-69
2022/01/08 03:10:26;;;;;;;7.20;2.63;;;2.90;99.90;;;;;;5049022;28;20517;-68
2022/01/08 03:12:52;;;;;;;4.22;2.53;;;1.80;99.90;;;;;;5067797;28;20049;-68
2022/01/08 03:15:23;;;;;;;6.97;2.88;;;1.70;99.90;;;;;;5049452;28;20050;-68
2022/01/08 03:17:49;;;;;;;5.35;2.70;;;1.60;99.90;;;;;;5065950;28;20087;-68
2022/01/08 03:20:16;;;;;;;8.00;2.80;;;1.60;99.90;;;;;;5065631;28;20110;-69
2022/01/08 03:22:45;;;;;;;6.38;2.55;;;1.50;99.90;;;;;;5042610;28;20044;-69
2022/01/08 03:25:12;;;;;;;8.88;2.97;;;1.50;99.90;;;;;;5066454;28;20063;-69
2022/01/08 03:27:41;;;;;;;5.78;2.70;;;1.50;99.90;;;;;;5067400;28;20053;-69
2022/01/08 03:30:07;;;;;;;5.78;2.50;;;1.60;99.90;;;;;;5066639;28;20404;-68
2022/01/08 03:32:33;;;;;;;4.97;2.30;;;1.60;99.90;;;;;;5048513;28;20167;-69
2022/01/08 03:34:59;;;;;;;6.38;2.50;;;1.60;99.90;;;;;;5030345;28;20545;-69
2022/01/08 03:37:25;;;;;;;8.23;2.78;;;1.60;99.90;;;;;;5058140;28;20122;-68
2022/01/08 03:39:50;;;;;;;6.68;2.45;;;1.50;99.90;;;;;;5067046;28;20520;-68
2022/01/08 03:42:16;;;;;;;4.80;2.20;;;1.50;99.90;;;;;;5066467;28;20048;-69
2022/01/08 03:44:42;;;;;;;5.85;2.45;;;1.50;99.90;;;;;;5056904;28;20480;-68
2022/01/08 03:49:51;;;;;;;8.25;2.55;;;1.40;99.90;;;;;;5061492;28;20049;-69
2022/01/08 03:52:17;;;;;;;5.88;2.30;;;2.30;99.90;;;;;;5066458;28;20051;-68
2022/01/08 03:54:43;;;;;;;5.18;2.13;;;1.40;99.90;;;;;;5068921;28;20128;-69
2022/01/08 03:57:08;;;;;;;4.50;2.05;;;1.40;99.90;;;;;;5051508;28;20083;-68
2022/01/08 03:59:34;;;;;;;6.88;2.25;;;1.40;99.90;;;;;;5049779;28;20052;-69
2022/01/08 04:02:00;;;;;;;6.43;2.30;;;1.40;99.90;;;;;;5047742;28;20060;-68
2022/01/08 04:04:25;;;;;;;8.20;2.30;;;1.40;99.90;;;;;;5052721;28;20510;-69
2022/01/08 04:06:51;;;;;;;5.90;2.50;;;1.40;99.90;;;;;;5069885;28;20111;-69
2022/01/08 04:09:17;;;;;;;4.90;2.40;;;1.40;99.90;;;;;;5070489;28;20148;-69
2022/01/08 04:11:43;;;;;;;7.22;2.30;;;1.40;99.90;;;;;;5053101;28;20156;-68
2022/01/08 04:14:09;;;;;;;7.57;2.28;;;1.40;99.90;;;;;;5070793;28;20158;-69
2022/01/08 04:16:39;;;;;;;3.17;2.10;;;1.40;99.90;;;;;;5034899;28;20048;-69
2022/01/08 04:19:04;;;;;;;3.83;2.30;;;1.40;99.90;;;;;;5053541;28;20048;-68
2022/01/08 04:24:01;;;;;;;5.82;2.33;;;1.40;99.90;;;;;;5070555;28;20067;-69
2022/01/08 04:26:27;;;;;;;7.05;2.38;;;1.40;99.90;;;;;;5070059;28;20574;-69
2022/01/08 04:28:54;;;;;;;4.80;2.20;;;1.50;99.90;;;;;;5070244;28;20156;-68
2022/01/08 04:31:20;;;;;;;3.95;2.10;;;3.10;99.90;;;;;;5033910;28;20057;-70
2022/01/08 04:33:46;;;;;;;6.55;2.28;;;1.50;99.90;;;;;;5068434;28;20493;-70
2022/01/08 04:36:12;;;;;;;4.25;2.20;;;1.50;99.90;;;;;;5071253;28;20052;-70
2022/01/08 04:38:37;;;;;;;5.65;2.42;;;1.50;99.90;;;;;;5070622;28;20056;-70
2022/01/08 04:41:03;;;;;;;6.82;2.20;;;1.50;99.90;;;;;;5069807;28;20144;-70
2022/01/08 04:43:29;;;;;;;7.32;2.25;;;1.60;99.90;;;;;;5069102;28;20484;-70
2022/01/08 04:45:55;;;;;;;5.38;2.58;;;1.70;99.90;;;;;;5052056;28;20056;-69
2022/01/08 04:48:21;;;;;;;8.70;2.67;;;1.60;99.90;;;;;;5051043;28;20067;-69
2022/01/08 04:50:46;;;;;;;6.75;2.20;;;1.70;99.90;;;;;;5069686;28;20052;-69
2022/01/08 04:53:12;;;;;;;8.38;2.72;;;1.70;99.90;;;;;;5070417;28;20056;-68
2022/01/08 04:55:38;;;;;;;8.02;2.55;;;1.80;99.90;;;;;;5069248;28;20103;-69
2022/01/08 04:58:05;;;;;;;7.88;2.40;;;1.80;99.90;;;;;;5070391;28;20098;-68
2022/01/08 05:00:31;;;;;;;7.15;2.60;;;1.90;99.90;;;;;;5070197;28;20048;-69
2022/01/08 05:02:57;;;;;;;8.77;3.13;;;2.70;99.90;;;;;;5068842;28;20105;-69
2022/01/08 05:05:23;;;;;;;7.20;2.60;;;1.80;99.90;;;;;;5052604;28;20056;-69
2022/01/08 05:07:49;;;;;;;6.00;2.22;;;1.80;99.90;;;;;;5069336;28;20052;-69
2022/01/08 05:10:14;;;;;;;6.13;2.38;;;1.80;99.90;;;;;;5051635;28;20113;-69
2022/01/08 05:12:40;;;;;;;5.72;2.45;;;1.80;99.90;;;;;;5069726;28;20048;-68
2022/01/08 05:15:06;;;;;;;7.72;2.80;;;1.80;99.90;;;;;;5069710;28;20049;-68
2022/01/08 05:17:35;;;;;;;6.45;2.38;;;1.80;99.90;;;;;;5052896;28;20052;-68
2022/01/08 05:20:12;;;;;;;7.65;2.50;;;1.80;99.90;;;;;;5037667;28;20091;-68
2022/01/08 05:23:00;;;;;;;5.35;2.53;;;1.90;99.90;;;;;;5053029;28;20504;-68
2022/01/08 05:25:26;;;;;;;4.25;2.20;;;1.80;99.90;;;;;;5067663;28;20088;-68
2022/01/08 05:27:53;;;;;;;8.57;2.65;;;2.00;99.90;;;;;;5069385;28;20107;-68
2022/01/08 05:30:21;;;;;;;8.07;2.67;;;1.80;99.90;;;;;;5069611;28;20048;-68
2022/01/08 05:32:46;;;;;;;8.10;2.40;;;1.70;99.90;;;;;;5050351;28;20059;-70
2022/01/08 05:35:12;;;;;;;6.72;2.40;;;1.70;99.90;;;;;;5069377;28;20481;-70
2022/01/08 05:37:38;;;;;;;5.35;2.40;;;1.80;99.90;;;;;;5069612;28;20563;-70
2022/01/08 05:40:04;;;;;;;7.43;2.80;;;1.80;99.90;;;;;;5050944;28;20182;-70
2022/01/08 05:42:30;;;;;;;5.97;2.42;;;1.80;99.90;;;;;;5068430;28;20056;-70
2022/01/08 05:44:56;;;;;;;6.43;2.40;;;1.80;99.90;;;;;;5037103;28;20061;-70
2022/01/08 05:47:22;;;;;;;7.65;2.70;;;1.80;99.90;;;;;;5055031;28;20045;-70
2022/01/08 05:49:48;;;;;;;8.93;2.60;;;1.80;99.90;;;;;;5069977;28;20053;-69
2022/01/08 05:52:13;;;;;;;6.97;2.42;;;1.80;99.90;;;;;;5050559;28;20054;-70
2022/01/08 05:54:39;;;;;;;6.50;2.50;;;1.70;99.90;;;;;;5068585;28;20048;-70
2022/01/08 05:57:06;;;;;;;6.60;2.40;;;1.80;99.90;;;;;;5068978;28;20060;-70
2022/01/08 05:59:32;;;;;;;6.40;2.08;;;1.80;99.90;;;;;;5050707;28;20049;-70
2022/01/08 06:01:58;;;;;;;6.43;2.38;;;1.80;99.90;;;;;;5068317;28;20044;-70
2022/01/08 06:04:24;;;;;;;5.22;2.50;;;1.70;99.90;;;;;;5070793;28;20059;-70
2022/01/08 06:06:50;;;;;;;6.35;2.35;;;1.70;99.90;;;;;;5068164;28;20056;-70
2022/01/08 06:09:16;;;;;;;6.57;2.78;;;1.70;99.90;;;;;;5068963;28;20056;-70
2022/01/08 06:11:42;;;;;;;7.95;2.30;;;1.60;99.90;;;;;;5068213;28;20477;-70
2022/01/08 06:14:07;;;;;;;7.03;2.88;;;1.70;99.90;;;;;;5068394;28;20052;-70
2022/01/08 06:16:35;;;;;;;5.55;2.50;;;1.70;99.90;;;;;;5068032;28;20372;-70
2022/01/08 06:19:10;;;;;;;11.25;3.35;;;1.80;99.90;;;;;;5068391;28;20071;-70
2022/01/08 06:21:36;;;;;;;10.55;3.90;;;1.70;99.90;;;;;;5069759;28;20451;-70
2022/01/08 06:24:03;;;;;;;6.88;2.92;;;1.70;99.90;;;;;;5051045;28;20139;-70
2022/01/08 06:26:28;;;;;;;7.72;3.08;;;1.70;99.90;;;;;;5068209;28;20376;-70
2022/01/08 06:28:54;;;;;;;7.32;3.05;;;1.70;99.90;;;;;;5067362;28;20056;-70
2022/01/08 06:31:21;;;;;;;7.15;3.45;;;1.70;99.90;;;;;;5068191;28;20474;-70
2022/01/08 06:33:47;;;;;;;8.27;3.30;;;1.60;99.90;;;;;;5069172;28;20074;-70
2022/01/08 06:36:13;;;;;;;6.38;3.50;;;1.60;99.90;;;;;;5068020;28;20044;-70
2022/01/08 06:38:40;;;;;;;10.85;4.05;;;1.60;99.90;;;;;;5050612;28;20049;-70
2022/01/08 06:41:05;;;;;;;9.30;3.90;;;2.70;99.90;;;;;;5067015;28;20063;-70
2022/01/08 06:43:31;;;;;;;10.27;4.38;;;1.60;99.90;;;;;;5068541;28;20052;-70
2022/01/08 06:45:57;;;;;;;9.27;4.70;;;1.60;99.90;;;;;;5067797;28;20059;-70
2022/01/08 06:48:22;;;;;;;10.13;4.90;;;1.60;99.90;;;;;;5067141;28;20433;-70
2022/01/08 06:50:48;;;;;;;11.25;5.07;;;1.70;99.90;;;;;;5068882;28;20064;-67
2022/01/08 06:53:13;;;;;;;12.07;4.70;;;1.60;99.90;;;;;;5067179;28;20045;-70
2022/01/08 06:55:39;;;;;;;12.77;5.07;;;1.50;99.90;;;;;;5063817;28;20569;-70
2022/01/08 06:58:04;;;;;;;11.93;5.10;;;1.50;99.90;;;;;;5049629;28;20052;-70
2022/01/08 07:00:30;;;;;;;11.48;5.35;;;1.50;99.90;;;;;;5050268;28;20114;-71
2022/01/08 07:02:56;;;;;;;13.30;5.50;;;1.50;99.90;;;;;;5066888;28;20048;-70
2022/01/08 07:05:21;;;;;;;12.00;4.80;;;1.70;99.90;;;;;;5067506;28;20174;-70
2022/01/08 07:07:47;;;;;;;11.55;4.60;;;1.50;99.90;;;;;;5068664;28;20052;-70
2022/01/08 07:10:13;;;;;;;11.10;4.97;;;1.50;99.90;;;;;;5060664;28;20124;-70
2022/01/08 07:12:39;;;;;;;11.38;5.30;;;1.50;99.90;;;;;;5047794;28;20124;-70
2022/01/08 07:15:05;;;;;;;13.88;5.82;;;1.50;99.90;;;;;;5048910;28;20443;-71
2022/01/08 07:17:30;;;;;;;10.25;5.03;;;1.40;99.90;;;;;;5066336;28;20048;-71
2022/01/08 07:19:56;;;;;;;13.70;5.60;;;1.40;99.90;;;;;;5051147;28;20045;-70
2022/01/08 07:22:22;;;;;;;12.43;5.50;;;1.40;99.90;;;;;;5069333;28;20199;-70
2022/01/08 07:24:47;;;;;;;12.98;5.43;;;1.40;99.90;;;;;;5067277;28;20048;-68
2022/01/08 07:27:13;;;;;;;9.20;5.03;;;1.40;99.90;;;;;;5067658;28;20554;-68
2022/01/08 07:29:39;;;;;;;14.68;5.68;;;1.40;99.90;;;;;;5067503;28;20106;-69
2022/01/08 07:32:05;;;;;;;11.25;4.57;;;1.40;99.90;;;;;;5066556;28;20354;-68
2022/01/08 07:34:31;;;;;;;10.32;5.30;;;1.50;99.90;;;;;;5049696;28;20099;-68
2022/01/08 07:36:56;;;;;;;8.23;5.20;;;1.50;99.90;;;;;;5050106;28;20092;-68
2022/01/08 07:39:22;;;;;;;14.73;5.43;;;1.60;99.90;;;;;;5049533;28;20056;-66
2022/01/08 07:41:48;;;;;;;12.30;6.03;;;1.50;99.90;;;;;;5070978;28;20048;-65
2022/01/08 07:44:13;;;;;;;11.93;4.82;;;1.60;99.90;;;;;;5070895;28;20049;-66
2022/01/08 07:46:39;;;;;;;12.77;5.55;;;1.60;99.90;;;;;;5070112;28;20060;-66
2022/01/08 07:49:04;;;;;;;13.32;5.13;;;1.60;99.90;;;;;;5071357;28;20055;-66
2022/01/08 07:51:30;;;;;;;11.90;4.93;;;1.60;99.90;;;;;;5052340;28;20512;-65
2022/01/08 07:53:56;;;;;;;16.55;5.38;;;1.60;99.90;;;;;;5069635;28;20496;-66
2022/01/08 07:56:21;;;;;;;11.50;5.10;;;1.60;99.90;;;;;;5053294;28;20468;-65
2022/01/08 07:58:47;;;;;;;12.32;5.10;;;1.60;99.90;;;;;;5071828;28;20054;-65
2022/01/08 08:01:12;;;;;;;13.48;5.03;;;1.60;99.90;;;;;;5070081;28;20443;-65
2022/01/08 08:03:38;;;;;;;10.15;4.25;;;1.70;99.90;;;;;;5071520;28;20037;-65
2022/01/08 08:06:09;;;;;;;8.63;4.47;;;1.70;99.90;;;;;;5051867;28;20057;-66
2022/01/08 08:08:34;;;;;;;10.48;4.82;;;1.70;99.90;;;;;;5071747;28;20119;-65
2022/01/08 08:11:00;;;;;;;11.63;4.32;;;1.80;99.90;;;;;;5070191;28;20128;-65
2022/01/08 08:13:25;;;;;;;13.15;4.35;;;1.80;99.90;;;;;;5053192;28;20048;-66
2022/01/08 08:15:51;;;;;;;11.95;4.65;;;1.80;99.90;;;;;;5071141;28;20110;-65
2022/01/08 08:18:16;;;;;;;9.65;4.40;;;1.80;99.90;;;;;;5070368;28;20484;-65
2022/01/08 08:20:42;;;;;;;12.50;4.30;;;1.80;99.90;;;;;;5069307;28;20052;-65
2022/01/08 08:23:08;;;;;;;9.57;4.60;;;1.80;99.90;;;;;;5070487;28;20083;-65
2022/01/08 08:25:34;;;;;;;11.40;4.30;;;1.90;99.90;;;;;;5067045;28;20159;-66
2022/01/08 08:27:59;;;;;;;14.02;4.10;;;1.90;99.90;;;;;;5070151;28;20128;-65
2022/01/08 08:30:26;;;;;;;8.00;4.03;;;2.00;99.90;;;;;;5070344;28;20147;-65
2022/01/08 08:32:52;;;;;;;10.93;4.35;;;2.20;99.90;;;;;;5067938;28;20765;-65
2022/01/08 08:35:18;;;;;;;9.07;3.95;;;2.20;99.90;;;;;;5069750;28;20094;-66
2022/01/08 08:37:44;;;;;;;10.60;3.70;;;2.30;99.90;;;;;;5071094;28;20041;-66
2022/01/08 08:40:12;;;;;;;11.90;4.00;;;2.40;99.90;;;;;;5052458;28;20136;-65
2022/01/08 08:42:38;;;;;;;12.23;3.88;;;2.50;99.90;;;;;;5069258;28;20097;-65
2022/01/08 08:45:05;;;;;;;8.55;3.63;;;2.60;99.90;;;;;;5052995;28;20369;-65
2022/01/08 08:47:31;;;;;;;8.88;3.47;;;2.70;99.90;;;;;;5051285;28;20105;-66
2022/01/08 08:50:00;;;;;;;8.48;3.83;;;2.80;99.90;;;;;;5035289;28;20056;-66
2022/01/08 08:52:26;;;;;;;8.50;3.45;;;2.80;99.90;;;;;;5034368;28;20092;-65
2022/01/08 08:54:55;;;;;;;10.40;3.42;;;2.80;99.90;;;;;;5062314;28;20068;-66
2022/01/08 08:57:20;;;;;;;9.25;4.32;;;2.80;99.90;;;;;;5049889;28;20052;-66
2022/01/08 08:59:46;;;;;;;11.80;3.78;;;2.90;99.90;;;;;;5050120;28;20057;-66
2022/01/08 09:02:12;;;;;;;9.38;3.72;;;2.90;99.90;;;;;;5049079;28;20102;-66
2022/01/08 09:04:40;;;;;;;8.10;3.70;;;2.90;99.90;;;;;;5070658;28;20461;-66
2022/01/08 09:07:06;;;;;;;10.50;3.70;;;3.00;99.90;;;;;;5069939;28;20056;-66
2022/01/08 09:09:32;;;;;;;10.88;3.85;;;3.00;99.90;;;;;;5068912;28;20119;-66
2022/01/08 09:11:57;;;;;;;11.95;3.83;;;3.10;99.90;;;;;;5051445;28;20260;-66
2022/01/08 09:14:23;;;;;;;8.82;3.80;;;3.30;99.90;;;;;;5051443;28;20049;-66
2022/01/08 09:16:57;;;;;;;9.85;3.40;;;3.30;99.90;;;;;;5067196;28;20044;-66
2022/01/08 09:19:24;;;;;;;7.40;3.53;;;3.40;99.90;;;;;;5069985;28;20048;-66
2022/01/08 09:21:50;;;;;;;8.05;3.70;;;3.40;99.90;;;;;;5069727;28;20047;-66
2022/01/08 09:24:18;;;;;;;10.50;3.40;;;3.60;99.90;;;;;;5068742;28;20053;-66
2022/01/08 09:26:45;;;;;;;10.75;3.95;;;3.80;99.90;;;;;;5069298;28;20051;-66
2022/01/08 09:29:10;;;;;;;8.40;3.75;;;4.20;99.90;;;;;;5069897;28;20080;-66
2022/01/08 09:31:38;;;;;;;12.82;4.07;;;4.50;99.90;;;;;;5067872;28;20472;-65
2022/01/08 09:34:04;;;;;;;12.25;3.30;;;4.80;99.90;;;;;;5051329;28;20048;-66
2022/01/08 09:36:31;;;;;;;9.18;3.80;;;5.10;99.90;;;;;;5051374;28;20115;-66
2022/01/08 09:38:57;;;;;;;8.85;3.65;;;5.30;99.90;;;;;;5068604;28;20049;-66
2022/01/08 09:41:23;;;;;;;8.30;3.33;;;5.30;99.90;;;;;;5068373;28;20052;-67
2022/01/08 09:43:49;;;;;;;12.55;4.30;;;5.10;99.90;;;;;;5045994;28;20126;-66
2022/01/08 09:46:15;;;;;;;15.13;4.05;;;5.70;99.90;;;;;;5047727;28;20101;-67
2022/01/08 09:48:44;;;;;;;7.50;3.20;;;4.80;99.90;;;;;;5049648;28;20051;-66
2022/01/08 09:51:10;;;;;;;10.00;3.50;;;5.70;99.90;;;;;;5030493;28;20064;-67
2022/01/08 09:53:36;;;;;;;7.35;3.20;;;4.80;99.90;;;;;;5065959;28;20376;-67
2022/01/08 09:56:03;;;;;;;11.13;2.97;;;5.00;99.90;;;;;;5047326;28;20048;-67
2022/01/08 09:58:29;;;;;;;12.00;3.70;;;5.30;99.90;;;;;;5068084;28;20539;-67
2022/01/08 10:00:54;;;;;;;11.43;3.00;;;5.60;99.90;;;;;;5067365;28;20135;-67
2022/01/08 10:03:26;;;;;;;13.38;3.38;;;5.80;99.90;;;;;;5067709;28;20059;-67
2022/01/08 10:06:00;;;;;;;9.88;2.90;;;6.50;99.90;;;;;;5066713;28;20056;-67
2022/01/08 10:08:32;;;;;;;7.63;2.58;;;6.90;99.90;;;;;;5049328;28;20382;-67
2022/01/08 10:11:03;;;;;;;7.63;3.00;;;7.00;99.90;;;;;;5064499;28;20446;-67
2022/01/08 10:13:34;;;;;;;8.93;2.88;;;7.00;99.90;;;;;;5048849;28;20048;-66
2022/01/08 10:18:46;;;;;;;11.65;3.00;;;6.70;99.90;;;;;;5069403;28;20472;-66
2022/01/08 10:21:29;;;;;;;8.40;2.63;;;6.50;99.90;;;;;;5057378;28;20049;-67
2022/01/08 10:24:03;;;;;;;12.10;3.47;;;6.30;99.90;;;;;;5030851;28;20057;-66
2022/01/08 10:26:35;;;;;;;13.85;2.75;;;6.10;99.90;;;;;;5047599;28;20048;-66
2022/01/08 10:29:03;;;;;;;10.40;2.80;;;6.00;99.90;;;;;;5050417;28;20114;-67
2022/01/08 10:31:48;;;;;;;10.60;3.05;;;6.00;99.90;;;;;;5067699;28;20051;-66
2022/01/08 10:34:15;;;;;;;7.05;2.70;;;5.90;99.90;;;;;;5052416;28;20118;-65
2022/01/08 10:36:46;;;;;;;9.27;3.30;;;5.90;99.90;;;;;;5050145;28;20051;-65
2022/01/08 10:39:24;;;;;;;10.43;2.80;;;5.90;99.90;;;;;;5065333;28;20134;-65
2022/01/08 10:41:52;;;;;;;9.63;3.35;;;5.90;99.90;;;;;;5069213;28;20044;-65
2022/01/08 10:44:19;;;;;;;8.45;3.15;;;5.70;99.90;;;;;;5067837;28;20435;-68
2022/01/08 10:46:56;;;;;;;8.13;3.17;;;5.60;99.90;;;;;;5050142;28;20068;-66
2022/01/08 10:49:31;;;;;;;11.27;3.50;;;5.60;99.90;;;;;;5050176;28;20098;-65
2022/01/08 10:51:59;;;;;;;7.55;3.78;;;5.50;99.90;;;;;;5068147;28;20065;-66
2022/01/08 10:54:27;;;;;;;9.43;3.42;;;5.30;99.90;;;;;;5045922;28;20484;-66
2022/01/08 10:56:56;;;;;;;9.30;3.72;;;5.20;99.90;;;;;;5048042;28;20053;-66
2022/01/08 10:59:24;;;;;;;13.07;4.57;;;5.10;99.90;;;;;;5030628;28;20135;-66
2022/01/08 11:01:56;;;;;;;9.63;3.80;;;6.30;99.90;;;;;;5046610;28;20052;-66
2022/01/08 11:04:32;;;;;;;9.75;3.80;;;5.20;99.90;;;;;;5029817;28;20433;-66
2022/01/08 11:07:01;;;;;;;10.15;4.40;;;4.80;99.90;;;;;;5048237;28;20045;-66
2022/01/08 11:09:28;;;;;;;8.43;3.88;;;4.70;99.90;;;;;;5047021;28;20040;-67
2022/01/08 11:11:56;;;;;;;8.85;4.20;;;4.60;99.90;;;;;;5067777;28;20058;-66
2022/01/08 11:17:25;;;;;;;13.13;4.70;;;4.60;99.90;;;;;;5069977;28;20048;-66
2022/01/08 11:20:01;;;;;;;9.90;4.45;;;4.70;99.90;;;;;;5059708;28;20128;-66
2022/01/08 11:22:29;;;;;;;12.00;4.53;;;4.80;99.90;;;;;;5050484;28;20500;-66
2022/01/08 11:25:00;;;;;;;11.77;4.53;;;4.80;99.90;;;;;;5061060;28;20048;-65
2022/01/08 11:27:43;;;;;;;10.20;4.18;;;4.90;99.90;;;;;;5062264;28;20049;-66
2022/01/08 11:30:34;;;;;;;11.02;4.90;;;5.00;99.90;;;;;;5067183;28;20049;-65
2022/01/08 11:33:06;;;;;;;10.73;5.13;;;5.10;99.90;;;;;;5068067;28;20058;-65
2022/01/08 11:35:34;;;;;;;16.77;5.43;;;5.10;99.90;;;;;;5051262;28;20392;-65
2022/01/08 11:38:03;;;;;;;12.85;4.95;;;5.00;99.90;;;;;;5070889;28;20056;-66
2022/01/08 11:40:30;;;;;;;13.30;4.88;;;5.00;99.90;;;;;;5070392;28;20048;-65
2022/01/08 11:43:02;;;;;;;12.05;4.93;;;5.00;99.90;;;;;;5070968;28;20059;-65
2022/01/08 11:45:34;;;;;;;11.48;4.93;;;5.10;99.90;;;;;;5068322;28;20392;-66
2022/01/08 11:48:09;;;;;;;14.35;4.80;;;5.20;99.90;;;;;;5036694;28;20093;-70
2022/01/08 11:50:35;;;;;;;7.43;4.05;;;5.20;99.90;;;;;;5066175;28;20378;-69
2022/01/08 11:53:17;;;;;;;11.73;5.70;;;5.10;99.90;;;;;;5067315;28;20071;-69
2022/01/08 11:55:49;;;;;;;12.98;5.25;;;6.70;99.90;;;;;;5067136;28;20079;-69
2022/01/08 11:58:26;;;;;;;11.55;5.50;;;5.20;99.90;;;;;;5067400;28;20063;-69
2022/01/08 12:01:10;;;;;;;14.95;4.68;;;5.20;99.90;;;;;;5066861;28;20371;-69
2022/01/08 12:03:51;;;;;;;13.57;5.75;;;5.30;99.90;;;;;;5050512;28;20154;-69
2022/01/08 12:06:23;;;;;;;13.43;5.65;;;5.30;99.90;;;;;;5066962;28;20506;-67
2022/01/08 12:11:46;;;;;;;15.35;5.32;;;5.10;99.90;;;;;;5049186;28;20052;-67
2022/01/08 12:14:17;;;;;;;14.30;5.75;;;5.10;99.90;;;;;;5069358;28;20471;-67
2022/01/08 12:16:45;;;;;;;13.13;5.95;;;5.00;99.90;;;;;;5052230;28;20063;-67
2022/01/08 12:19:32;;;;;;;11.63;5.63;;;4.90;99.90;;;;;;5066918;28;20131;-67
2022/01/08 12:22:17;;;;;;;10.82;6.00;;;4.90;99.90;;;;;;5049310;28;20578;-67
2022/01/08 12:24:44;;;;;;;10.43;5.80;;;4.90;99.90;;;;;;5066907;28;20057;-67
2022/01/08 12:27:37;;;;;;;11.35;6.00;;;4.90;99.90;;;;;;5046811;28;20060;-67
2022/01/08 12:30:15;;;;;;;12.90;6.63;;;4.80;99.90;;;;;;5066847;28;20049;-66
2022/01/08 12:32:45;;;;;;;12.75;6.15;;;4.80;99.90;;;;;;5071644;28;20056;-65
2022/01/08 12:35:21;;;;;;;12.20;6.07;;;4.80;99.90;;;;;;5052679;28;20063;-66
2022/01/08 12:37:52;;;;;;;13.60;6.72;;;4.80;99.90;;;;;;5035212;28;20060;-65
2022/01/08 12:40:33;;;;;;;18.70;7.22;;;4.80;99.90;;;;;;5068442;28;20049;-66
2022/01/08 12:42:58;;;;;;;16.05;7.22;;;4.90;99.90;;;;;;5035205;28;20075;-66
2022/01/08 12:45:32;;;;;;;12.57;7.32;;;4.80;99.90;;;;;;5074327;28;20123;-65
2022/01/08 12:48:01;;;;;;;14.82;7.63;;;4.80;99.90;;;;;;5051641;28;20045;-66
2022/01/08 12:50:36;;;;;;;16.00;8.85;;;4.70;99.90;;;;;;5069881;28;20056;-66
2022/01/08 12:53:07;;;;;;;16.60;8.18;;;4.70;99.90;;;;;;5039189;28;20064;-66
2022/01/08 12:55:49;;;;;;;13.98;8.32;;;4.70;99.90;;;;;;5046516;28;20061;-66
2022/01/08 12:58:19;;;;;;;15.07;8.85;;;4.60;99.90;;;;;;5069551;28;20052;-66
2022/01/08 13:00:58;;;;;;;16.05;8.25;;;4.60;99.90;;;;;;5046002;28;20132;-66
2022/01/08 13:03:29;;;;;;;16.67;6.65;;;4.60;99.90;;;;;;5046506;28;20438;-66
2022/01/08 13:05:57;;;;;;;15.32;9.15;;;4.60;99.90;;;;;;5069588;28;20423;-65
2022/01/08 13:08:25;;;;;;;15.50;9.00;;;5.40;99.90;;;;;;5069127;28;20045;-66
2022/01/08 13:10:56;;;;;;;15.85;9.93;;;4.60;99.90;;;;;;5059016;28;20057;-66
2022/01/08 13:13:26;;;;;;;13.25;8.27;;;4.60;99.90;;;;;;5046601;28;20504;-66
2022/01/08 13:15:53;;;;;;;18.27;9.70;;;4.60;99.90;;;;;;5067919;28;20052;-66
2022/01/08 13:18:24;;;;;;;18.10;10.45;;;4.50;99.90;;;;;;5068010;28;20051;-66
2022/01/08 13:21:02;;;;;;;16.90;10.32;;;4.60;99.90;;;;;;5074936;28;20052;-66
2022/01/08 13:23:27;;;;;;;15.13;9.68;;;4.60;99.90;;;;;;5067549;28;20372;-66
2022/01/08 13:25:55;;;;;;;17.10;10.65;;;4.50;99.90;;;;;;5066156;28;20049;-66